createdAt,value
2022-08-12T00:00:36.549Z,99714.81
2022-08-12T00:03:21.774Z,99718.34
2022-08-12T00:06:08.600Z,99722.72
2022-08-12T00:08:55.745Z,99718.47
2022-08-12T00:11:43.100Z,99721.06
2022-08-12T00:14:29.416Z,99718.47
2022-08-12T00:17:14.800Z,99715.94
2022-08-12T00:20:00.070Z,99711.66
2022-08-12T00:22:46.817Z,99719.44
2022-08-12T00:26:20.929Z,99721.19
2022-08-12T00:28:59.027Z,99723.91
2022-08-12T00:31:44.325Z,99724.84
2022-08-12T00:34:33.805Z,99723.13
2022-08-12T00:37:19.194Z,99720.53
2022-08-12T00:40:11.248Z,99720.59
2022-08-12T00:42:41.140Z,99707.78
2022-08-12T00:45:08.656Z,99712.94
2022-08-12T00:47:36.069Z,99708.69
2022-08-12T00:50:03.539Z,99706.16
2022-08-12T00:52:30.184Z,99709.66
2022-08-12T00:55:03.613Z,99719.19
2022-08-12T00:57:36.923Z,99720.09
2022-08-12T01:00:13.526Z,99721.00
2022-08-12T01:02:42.863Z,99715.91
2022-08-12T01:05:31.571Z,99732.38
2022-08-12T01:08:17.604Z,99723.66
2022-08-12T01:11:03.732Z,99716.81
2022-08-12T01:13:35.889Z,99722.00
2022-08-12T01:16:05.918Z,99720.38
2022-08-12T01:18:36.536Z,99739.41
2022-08-12T01:21:09.142Z,99742.03
2022-08-12T01:23:57.593Z,99753.34
2022-08-12T01:26:25.363Z,99747.25
2022-08-12T01:28:58.676Z,99745.59
2022-08-12T01:31:27.650Z,99747.25
2022-08-12T01:34:28.487Z,99738.63
2022-08-12T01:37:02.177Z,99742.97
2022-08-12T01:40:34.441Z,99738.69
2022-08-12T01:42:46.141Z,99735.22
2022-08-12T01:45:13.600Z,99729.22
2022-08-12T01:48:05.001Z,99729.16
2022-08-12T01:50:55.118Z,99729.22
2022-08-12T01:53:50.409Z,99727.50
2022-08-12T01:56:22.038Z,99715.47
2022-08-12T01:59:12.289Z,99734.50
2022-08-12T02:01:40.344Z,99730.13
2022-08-12T02:04:46.479Z,99725.81
2022-08-12T02:08:04.457Z,99725.00
2022-08-12T02:11:18.404Z,99720.72
2022-08-12T02:14:18.008Z,99732.00
2022-08-12T02:16:56.627Z,99725.13
2022-08-12T02:19:42.491Z,99730.34
2022-08-12T02:22:31.439Z,99728.59
2022-08-12T02:25:25.616Z,99729.50
2022-08-12T02:27:54.889Z,99725.19
2022-08-12T02:30:41.592Z,99717.50
2022-08-12T02:33:10.429Z,99726.09
2022-08-12T02:35:37.597Z,99715.69
2022-08-12T02:38:07.507Z,99720.91
2022-08-12T02:40:39.438Z,99726.16
2022-08-12T02:43:19.367Z,99717.47
2022-08-12T02:46:13.737Z,99709.69
2022-08-12T02:48:51.501Z,99718.38
2022-08-12T02:51:23.616Z,99707.13
2022-08-12T02:54:04.406Z,99709.81
2022-08-12T02:56:41.122Z,99702.03
2022-08-12T02:59:10.587Z,99707.31
2022-08-12T03:01:47.904Z,99712.44
2022-08-12T03:04:43.069Z,99714.19
2022-08-12T03:07:49.294Z,99716.78
2022-08-12T03:10:17.811Z,99705.53
2022-08-12T03:12:49.847Z,99708.13
2022-08-12T03:15:22.177Z,99715.91
2022-08-12T03:18:24.806Z,99702.88
2022-08-12T03:20:42.239Z,99702.00
2022-08-12T03:23:27.382Z,99708.94
2022-08-12T03:25:59.024Z,99709.72
2022-08-12T03:28:46.985Z,99715.84
2022-08-12T03:31:13.670Z,99712.34
2022-08-12T03:34:00.542Z,99716.63
2022-08-12T03:36:29.224Z,99701.00
2022-08-12T03:39:15.616Z,99711.31
2022-08-12T03:42:22.642Z,99714.72
2022-08-12T03:45:26.447Z,99713.81
2022-08-12T03:48:19.109Z,99720.72
2022-08-12T03:51:06.074Z,99711.06
2022-08-12T03:53:51.717Z,99711.00
2022-08-12T03:56:37.062Z,99692.75
2022-08-12T03:59:24.639Z,99703.03
2022-08-12T04:01:57.506Z,99697.81
2022-08-12T04:04:35.276Z,99709.88
2022-08-12T04:07:08.016Z,99718.50
2022-08-12T04:09:37.691Z,99727.06
2022-08-12T04:12:26.107Z,99723.63
2022-08-12T04:14:57.390Z,99726.16
2022-08-12T04:17:26.830Z,99721.69
2022-08-12T04:19:55.944Z,99732.84
2022-08-12T04:22:26.440Z,99737.09
2022-08-12T04:24:53.895Z,99739.63
2022-08-12T04:27:20.619Z,99739.59
2022-08-12T04:30:17.068Z,99749.03
2022-08-12T04:32:42.287Z,99739.41
2022-08-12T04:35:12.269Z,99722.88
2022-08-12T04:37:58.537Z,99735.84
2022-08-12T04:40:28.055Z,99738.38
2022-08-12T04:42:55.836Z,99743.47
2022-08-12T04:45:22.898Z,99740.84
2022-08-12T04:47:49.960Z,99739.03
2022-08-12T04:50:34.830Z,99743.28
2022-08-12T04:53:08.013Z,99735.41
2022-08-12T04:55:35.633Z,99742.25
2022-08-12T04:58:02.263Z,99723.06
2022-08-12T05:00:28.981Z,99730.84
2022-08-12T05:02:55.708Z,99740.38
2022-08-12T05:05:24.283Z,99739.50
2022-08-12T05:07:54.231Z,99740.38
2022-08-12T05:10:33.418Z,99736.84
2022-08-12T05:13:08.235Z,99748.94
2022-08-12T05:16:03.746Z,99737.59
2022-08-12T05:18:25.336Z,99734.00
2022-08-12T05:20:56.562Z,99729.56
2022-08-12T05:23:23.248Z,99729.56
2022-08-12T05:25:51.590Z,99738.19
2022-08-12T05:28:18.704Z,99732.94
2022-08-12T05:30:46.351Z,99731.91
2022-08-12T05:33:15.665Z,99723.97
2022-08-12T05:35:45.068Z,99721.28
2022-08-12T05:38:36.933Z,99721.16
2022-08-12T05:41:06.346Z,99715.00
2022-08-12T05:43:34.216Z,99720.03
2022-08-12T05:46:00.857Z,99722.56
2022-08-12T05:48:28.067Z,99714.50
2022-08-12T05:50:54.724Z,99700.44
2022-08-12T05:53:21.384Z,99697.78
2022-08-12T05:55:47.964Z,99701.09
2022-08-12T05:58:14.501Z,99710.53
2022-08-12T06:00:42.563Z,99710.47
2022-08-12T06:03:09.301Z,99713.75
2022-08-12T06:05:54.441Z,99705.75
2022-08-12T06:08:23.063Z,99706.44
2022-08-12T06:10:50.361Z,99716.75
2022-08-12T06:13:28.008Z,99727.97
2022-08-12T06:16:07.363Z,99731.44
2022-08-12T06:18:34.519Z,99733.84
2022-08-12T06:21:01.752Z,99726.75
2022-08-12T06:23:29.713Z,99728.31
2022-08-12T06:25:56.983Z,99727.25
2022-08-12T06:28:23.641Z,99732.38
2022-08-12T06:31:14.947Z,99727.84
2022-08-12T06:34:00.128Z,99738.16
2022-08-12T06:36:29.626Z,99738.03
2022-08-12T06:38:57.249Z,99730.09
2022-08-12T06:42:10.747Z,99738.63
2022-08-12T06:44:29.527Z,99743.66
2022-08-12T06:46:56.876Z,99739.09
2022-08-12T06:49:25.487Z,99741.53
2022-08-12T06:51:56.681Z,99738.81
2022-08-12T06:54:31.215Z,99736.06
2022-08-12T06:58:06.140Z,99723.84
2022-08-12T06:59:46.486Z,99726.34
2022-08-12T07:02:13.050Z,99731.56
2022-08-12T07:04:39.847Z,99709.81
2022-08-12T07:07:08.660Z,99702.97
2022-08-12T07:10:04.629Z,99710.06
2022-08-12T07:12:22.423Z,99699.66
2022-08-12T07:14:52.702Z,99707.50
2022-08-12T07:17:19.300Z,99713.50
2022-08-12T07:19:48.574Z,99720.28
2022-08-12T07:22:16.113Z,99727.13
2022-08-12T07:24:43.011Z,99723.41
2022-08-12T07:27:09.870Z,99711.97
2022-08-12T07:29:57.812Z,99723.16
2022-08-12T07:32:25.526Z,99718.59
2022-08-12T07:34:56.265Z,99722.88
2022-08-12T07:37:23.501Z,99712.50
2022-08-12T07:39:59.232Z,99703.63
2022-08-12T07:42:28.968Z,99706.34
2022-08-12T07:44:56.477Z,99708.94
2022-08-12T07:47:23.930Z,99701.00
2022-08-12T07:50:05.263Z,99701.94
2022-08-12T07:52:42.158Z,99695.84
2022-08-12T07:55:10.305Z,99693.13
2022-08-12T07:57:53.353Z,99691.28
2022-08-12T08:00:20.594Z,99687.72
2022-08-12T08:02:49.297Z,99688.41
2022-08-12T08:05:16.241Z,99683.84
2022-08-12T08:07:42.877Z,99672.19
2022-08-12T08:10:11.566Z,99673.56
2022-08-12T08:12:53.915Z,99670.03
2022-08-12T08:16:00.773Z,99670.41
2022-08-12T08:18:26.863Z,99672.88
2022-08-12T08:20:55.280Z,99662.16
2022-08-12T08:23:21.917Z,99661.91
2022-08-12T08:25:56.435Z,99658.25
2022-08-12T08:28:23.058Z,99665.13
2022-08-12T08:30:50.480Z,99679.81
2022-08-12T08:33:22.986Z,99682.31
2022-08-12T08:36:06.877Z,99676.03
2022-08-12T08:38:57.934Z,99687.22
2022-08-12T08:42:14.275Z,99696.63
2022-08-12T08:44:32.306Z,99685.31
2022-08-12T08:46:59.088Z,99685.06
2022-08-12T08:49:25.731Z,99693.59
2022-08-12T08:51:52.339Z,99684.63
2022-08-12T08:54:18.985Z,99686.94
2022-08-12T08:56:52.302Z,99689.47
2022-08-12T08:59:20.043Z,99688.22
2022-08-12T09:01:48.838Z,99689.81
2022-08-12T09:05:08.783Z,99677.50
2022-08-12T09:07:16.565Z,99680.84
2022-08-12T09:10:02.225Z,99681.69
2022-08-12T09:12:54.068Z,99685.06
2022-08-12T09:18:11.973Z,99667.75
2022-08-12T09:20:40.464Z,99663.19
2022-08-12T09:24:00.935Z,99667.25
2022-08-12T09:25:58.306Z,99660.22
2022-08-12T09:28:32.867Z,99664.63
2022-08-12T09:31:00.170Z,99668.00
2022-08-12T09:34:25.634Z,99675.78
2022-08-12T09:36:30.751Z,99680.47
2022-08-12T09:38:58.536Z,99676.66
2022-08-12T09:42:08.637Z,99680.66
2022-08-12T09:44:39.128Z,99683.81
2022-08-12T09:47:10.436Z,99675.66
2022-08-12T09:49:42.232Z,99694.56
2022-08-12T09:52:11.646Z,99696.94
2022-08-12T09:54:38.231Z,99700.94
2022-08-12T09:58:44.564Z,99705.72
2022-08-12T10:00:13.551Z,99704.38
2022-08-12T10:03:06.602Z,99705.50
2022-08-12T10:06:26.848Z,99706.94
2022-08-12T10:08:27.340Z,99708.34
2022-08-12T10:11:20.043Z,99704.56
2022-08-12T10:13:48.646Z,99701.00
2022-08-12T10:16:18.673Z,99708.66
2022-08-12T10:18:51.638Z,99706.13
2022-08-12T10:21:35.775Z,99695.84
2022-08-12T10:24:14.637Z,99700.84
2022-08-12T10:27:05.849Z,99699.78
2022-08-12T10:30:37.984Z,99696.56
2022-08-12T10:32:45.277Z,99695.06
2022-08-12T10:35:20.619Z,99712.72
2022-08-12T10:38:35.402Z,99710.41
2022-08-12T10:40:55.514Z,99704.63
2022-08-12T10:43:54.556Z,99693.88
2022-08-12T10:46:24.063Z,99681.31
2022-08-12T10:49:06.537Z,99688.34
2022-08-12T10:52:04.112Z,99688.53
2022-08-12T10:54:32.654Z,99691.22
2022-08-12T10:57:02.832Z,99698.66
2022-08-12T11:00:29.106Z,99705.94
2022-08-12T11:04:20.741Z,99711.56
2022-08-12T11:07:09.932Z,99712.94
2022-08-12T11:08:34.369Z,99713.63
2022-08-12T11:10:38.043Z,99715.91
2022-08-12T11:13:09.024Z,99709.50
2022-08-12T11:16:03.693Z,99713.41
2022-08-12T11:18:25.657Z,99706.22
2022-08-12T11:20:54.275Z,99721.59
2022-08-12T11:23:37.114Z,99714.19
2022-08-12T11:26:07.929Z,99711.19
2022-08-12T11:28:36.886Z,99716.84
2022-08-12T11:31:07.045Z,99710.25
2022-08-12T11:34:05.748Z,99712.31
2022-08-12T11:36:23.525Z,99718.88
2022-08-12T11:38:53.151Z,99710.50
2022-08-12T11:41:31.042Z,99718.50
2022-08-12T11:44:02.045Z,99710.84
2022-08-12T11:46:47.128Z,99696.44
2022-08-12T11:49:30.484Z,99687.91
2022-08-12T11:51:58.756Z,99665.44
2022-08-12T11:54:25.469Z,99681.41
2022-08-12T11:56:59.482Z,99702.44
2022-08-12T12:02:18.867Z,99701.88
2022-08-12T12:04:46.684Z,99698.66
2022-08-12T12:07:21.110Z,99714.28
2022-08-12T12:09:53.505Z,99713.34
2022-08-12T12:12:22.549Z,99714.19
2022-08-12T12:14:54.132Z,99708.94
2022-08-12T12:17:21.832Z,99698.53
2022-08-12T12:19:48.855Z,99705.44
2022-08-12T12:22:15.822Z,99702.13
2022-08-12T12:24:51.148Z,99713.56
2022-08-12T12:28:02.624Z,99711.84
2022-08-12T12:30:18.216Z,99708.59
2022-08-12T12:32:54.889Z,99709.41
2022-08-12T12:36:19.812Z,99706.19
2022-08-12T12:38:12.278Z,99713.31
2022-08-12T12:40:41.578Z,99715.22
2022-08-12T12:43:12.245Z,99712.88
2022-08-12T12:45:39.610Z,99712.03
2022-08-12T12:48:17.272Z,99704.47
2022-08-12T12:50:51.147Z,99701.00
2022-08-12T12:54:06.520Z,99704.53
2022-08-12T12:56:17.962Z,99696.66
2022-08-12T12:58:44.682Z,99699.41
2022-08-12T13:01:26.644Z,99702.84
2022-08-12T13:04:01.885Z,99700.91
2022-08-12T13:06:30.240Z,99700.06
2022-08-12T13:09:03.357Z,99702.50
2022-08-12T13:11:42.223Z,99700.75
2022-08-12T13:14:27.993Z,99699.66
2022-08-12T13:16:57.667Z,99695.22
2022-08-12T13:19:37.608Z,99700.38
2022-08-12T13:22:21.705Z,99697.75
2022-08-12T13:24:55.446Z,99697.75
2022-08-12T13:27:48.401Z,99695.78
2022-08-12T13:30:20.842Z,99692.44
2022-08-12T13:32:57.685Z,99701.78
2022-08-12T13:36:02.956Z,99701.84
2022-08-12T13:38:12.981Z,99704.34
2022-08-12T13:40:40.469Z,99712.03
2022-08-12T13:43:07.314Z,99716.28
2022-08-12T13:45:35.593Z,99711.84
2022-08-12T13:48:07.857Z,99706.53
2022-08-12T13:50:40.003Z,99699.50
2022-08-12T13:53:24.104Z,99701.16
2022-08-12T13:55:59.848Z,99691.47
2022-08-12T13:58:30.509Z,99703.59
2022-08-12T14:00:58.668Z,99699.81
2022-08-12T14:03:28.290Z,99698.66
2022-08-12T14:06:15.563Z,99698.34
2022-08-12T14:08:43.374Z,99689.41
2022-08-12T14:11:13.124Z,99697.81
2022-08-12T14:14:03.127Z,99702.09
2022-08-12T14:16:37.402Z,99708.91
2022-08-12T14:19:10.626Z,99714.88
2022-08-12T14:22:01.065Z,99720.88
2022-08-12T14:24:35.883Z,99724.03
2022-08-12T14:27:08.888Z,99714.06
2022-08-12T14:29:56.268Z,99708.38
2022-08-12T14:32:24.290Z,99711.91
2022-08-12T14:34:51.822Z,99700.41
2022-08-12T14:37:56.299Z,99704.78
2022-08-12T14:40:07.709Z,99702.69
2022-08-12T14:42:35.599Z,99711.88
2022-08-12T14:45:03.177Z,99697.00
2022-08-12T14:47:35.499Z,99695.94
2022-08-12T14:50:41.538Z,99689.16
2022-08-12T14:58:32.020Z,99674.44
2022-08-12T15:01:21.197Z,99674.75
2022-08-12T15:03:56.867Z,99670.81
2022-08-12T15:06:43.540Z,99663.22
2022-08-12T15:09:16.220Z,99649.59
2022-08-12T15:11:54.739Z,99651.63
2022-08-12T15:14:25.376Z,99657.25
2022-08-12T15:16:53.042Z,99670.53
2022-08-12T15:20:10.711Z,99671.59
2022-08-12T15:22:36.795Z,99684.97
2022-08-12T15:24:54.204Z,99691.44
2022-08-12T15:27:22.401Z,99693.38
2022-08-12T15:29:59.012Z,99696.22
2022-08-12T15:32:32.015Z,99688.53
2022-08-12T15:35:00.728Z,99686.03
2022-08-12T15:38:08.202Z,99683.53
2022-08-12T15:40:14.694Z,99673.97
2022-08-12T15:42:41.556Z,99668.91
2022-08-12T15:45:21.236Z,99660.50
2022-08-12T15:48:16.167Z,99649.34
2022-08-12T15:50:45.486Z,99636.34
2022-08-12T15:53:15.702Z,99634.13
2022-08-12T15:55:46.084Z,99641.13
2022-08-12T15:58:16.664Z,99629.97
2022-08-12T16:00:44.008Z,99632.69
2022-08-12T16:03:13.514Z,99636.38
2022-08-12T16:06:15.708Z,99633.09
2022-08-12T16:08:32.700Z,99627.19
2022-08-12T16:10:59.565Z,99629.97
2022-08-12T16:13:32.803Z,99615.22
2022-08-12T16:16:04.159Z,99603.16
2022-08-12T16:18:49.991Z,99612.06
2022-08-12T16:21:51.738Z,99620.84
2022-08-12T16:24:07.579Z,99620.19
2022-08-12T16:26:36.849Z,99622.09
2022-08-12T16:29:14.506Z,99619.66
2022-08-12T16:31:42.814Z,99614.53
2022-08-12T16:34:26.158Z,99611.16
2022-08-12T16:37:02.190Z,99600.88
2022-08-12T16:39:59.609Z,99594.97
2022-08-12T16:42:22.784Z,99596.84
2022-08-12T16:44:56.457Z,99593.50
2022-08-12T16:47:27.191Z,99596.28
2022-08-12T16:49:57.869Z,99601.56
2022-08-12T16:52:27.630Z,99599.97
2022-08-12T16:54:54.738Z,99594.88
2022-08-12T16:57:35.204Z,99599.41
2022-08-12T17:00:13.183Z,99602.13
2022-08-12T17:02:40.522Z,99590.09
2022-08-12T17:05:15.120Z,99589.44
2022-08-12T17:07:47.220Z,99586.94
2022-08-12T17:10:36.099Z,99591.38
2022-08-12T17:13:09.753Z,99588.88
2022-08-12T17:15:57.612Z,99594.22
2022-08-12T17:18:42.919Z,99589.25
2022-08-12T17:21:19.555Z,99589.25
2022-08-12T17:23:53.677Z,99592.09
2022-08-12T17:26:28.352Z,99595.56
2022-08-12T17:29:02.609Z,99594.03
2022-08-12T17:32:00.765Z,99602.75
2022-08-12T17:34:38.401Z,99605.47
2022-08-12T17:37:06.501Z,99606.50
2022-08-12T17:40:12.742Z,99604.97
2022-08-12T17:42:34.731Z,99599.06
2022-08-12T17:45:17.845Z,99616.66
2022-08-12T17:48:02.121Z,99604.66
2022-08-12T17:50:38.021Z,99610.91
2022-08-12T17:53:10.675Z,99608.44
2022-08-12T17:55:47.404Z,99601.56
2022-08-12T17:58:42.401Z,99602.41
2022-08-12T18:01:18.247Z,99611.19
2022-08-12T18:04:05.498Z,99606.84
2022-08-12T18:06:36.402Z,99616.47
2022-08-12T18:09:09.406Z,99620.84
2022-08-12T18:12:04.163Z,99617.44
2022-08-12T18:14:37.096Z,99615.72
2022-08-12T18:17:08.698Z,99614.88
2022-08-12T18:20:03.651Z,99609.63
2022-08-12T18:22:30.825Z,99620.16
2022-08-12T18:25:17.300Z,99608.78
2022-08-12T18:28:16.251Z,99617.56
2022-08-12T18:30:52.991Z,99611.47
2022-08-12T18:33:26.062Z,99612.31
2022-08-12T18:35:58.350Z,99616.75
2022-08-12T18:38:27.099Z,99620.28
2022-08-12T18:41:21.373Z,99621.97
2022-08-12T18:44:02.860Z,99628.13
2022-08-12T18:46:55.436Z,99622.03
2022-08-12T18:49:38.580Z,99623.84
2022-08-12T18:52:11.350Z,99614.28
2022-08-12T18:54:48.956Z,99626.53
2022-08-12T18:58:07.618Z,99632.63
2022-08-12T19:00:26.551Z,99618.66
2022-08-12T19:02:53.980Z,99617.84
2022-08-12T19:05:23.553Z,99616.16
2022-08-12T19:08:11.072Z,99604.75
2022-08-12T19:10:42.926Z,99604.75
2022-08-12T19:13:37.872Z,99599.66
2022-08-12T19:16:11.552Z,99596.06
2022-08-12T19:18:44.808Z,99596.97
2022-08-12T19:21:16.236Z,99595.22
2022-08-12T19:24:04.678Z,99600.44
2022-08-12T19:26:34.970Z,99604.84
2022-08-12T19:29:05.329Z,99601.28
2022-08-12T19:31:55.289Z,99606.53
2022-08-12T19:38:02.458Z,99603.03
2022-08-12T19:40:32.327Z,99603.81
2022-08-12T19:43:17.878Z,99611.59
2022-08-12T19:45:52.838Z,99615.13
2022-08-12T19:48:23.498Z,99605.47
2022-08-12T19:50:53.615Z,99605.47
2022-08-12T19:53:24.632Z,99608.00
2022-08-12T19:55:53.380Z,99602.78
2022-08-12T19:58:21.916Z,99598.47
2022-08-12T20:00:56.402Z,99605.41
2022-08-12T20:03:39.562Z,99595.00
2022-08-12T20:06:23.817Z,99585.41
2022-08-12T20:08:55.894Z,99576.78
2022-08-12T20:12:11.398Z,99582.94
2022-08-12T20:14:19.406Z,99579.50
2022-08-12T20:16:57.690Z,99570.72
2022-08-12T20:20:16.347Z,99564.78
2022-08-12T20:22:24.513Z,99556.13
2022-08-12T20:24:58.228Z,99552.75
2022-08-12T20:28:04.764Z,99555.25
2022-08-12T20:30:16.234Z,99552.66
2022-08-12T20:33:01.445Z,99546.72
2022-08-12T20:36:06.080Z,99550.13
2022-08-12T20:38:27.259Z,99551.03
2022-08-12T20:40:55.612Z,99547.63
2022-08-12T20:43:24.329Z,99555.38
2022-08-12T20:45:58.127Z,99551.09
2022-08-12T20:48:29.441Z,99557.19
2022-08-12T20:50:57.977Z,99543.19
2022-08-12T20:53:53.914Z,99541.44
2022-08-12T20:56:19.543Z,99544.91
2022-08-12T20:58:46.462Z,99544.91
2022-08-12T21:01:15.461Z,99554.44
2022-08-12T21:04:05.649Z,99555.28
2022-08-12T21:06:50.788Z,99558.78
2022-08-12T21:09:22.511Z,99551.84
2022-08-12T21:11:53.647Z,99558.78
2022-08-12T21:14:20.340Z,99550.13
2022-08-12T21:17:06.656Z,99543.03
2022-08-12T21:19:53.080Z,99543.94
2022-08-12T21:22:24.357Z,99540.41
2022-08-12T21:24:52.964Z,99559.56
2022-08-12T21:27:20.061Z,99570.13
2022-08-12T21:29:55.313Z,99594.44
2022-08-12T21:32:39.410Z,99607.56
2022-08-12T21:35:19.214Z,99624.16
2022-08-12T21:37:53.078Z,99629.34
2022-08-12T21:40:20.200Z,99631.97
2022-08-12T21:42:47.405Z,99637.19
2022-08-12T21:45:47.004Z,99644.16
2022-08-12T21:48:08.177Z,99668.69
2022-08-12T21:50:35.546Z,99651.94
2022-08-12T21:53:10.224Z,99639.28
2022-08-12T21:55:37.461Z,99641.63
2022-08-12T21:58:16.599Z,99639.50
2022-08-12T22:00:43.630Z,99633.13
2022-08-12T22:04:03.693Z,99629.19
2022-08-12T22:06:31.198Z,99621.78
2022-08-12T22:09:15.649Z,99634.31
2022-08-12T22:11:56.400Z,99633.03
2022-08-12T22:14:28.612Z,99622.44
2022-08-12T22:16:56.706Z,99634.16
2022-08-12T22:19:23.596Z,99628.34
2022-08-12T22:21:53.712Z,99625.09
2022-08-12T22:24:26.716Z,99617.63
2022-08-12T22:27:31.436Z,99626.38
2022-08-12T22:30:15.964Z,99608.19
2022-08-12T22:32:51.549Z,99612.66
2022-08-12T22:35:55.347Z,99608.38
2022-08-12T22:38:24.312Z,99607.53
2022-08-12T22:41:00.871Z,99595.44
2022-08-12T22:44:00.982Z,99594.69
2022-08-12T22:46:52.904Z,99592.97
2022-08-12T22:49:37.018Z,99582.63
2022-08-12T22:52:13.151Z,99581.88
2022-08-12T22:54:57.996Z,99574.13
2022-08-12T22:57:54.028Z,99573.41
2022-08-12T23:00:24.507Z,99568.44
2022-08-12T23:02:56.940Z,99568.50
2022-08-12T23:05:56.827Z,99565.09
2022-08-12T23:08:17.797Z,99552.13
2022-08-12T23:10:45.035Z,99541.91
2022-08-12T23:13:43.800Z,99543.63
2022-08-12T23:16:27.990Z,99528.91
2022-08-12T23:19:01.811Z,99528.88
2022-08-12T23:22:05.398Z,99515.94
2022-08-12T23:24:38.544Z,99518.66
2022-08-12T23:27:43.976Z,99536.09
2022-08-12T23:30:18.289Z,99551.75
2022-08-12T23:32:46.327Z,99560.53
2022-08-12T23:35:22.667Z,99583.13
2022-08-12T23:37:53.521Z,99591.00
2022-08-12T23:40:25.767Z,99587.59
2022-08-12T23:42:56.947Z,99596.22
2022-08-12T23:45:31.493Z,99584.88
2022-08-12T23:48:01.615Z,99580.53
2022-08-12T23:50:33.471Z,99585.75
2022-08-12T23:53:05.703Z,99578.78
2022-08-12T23:55:40.521Z,99578.78
2022-08-12T23:58:21.078Z,99570.16
